Time;durP1;ratioP1;P1;durP2;ratioP2;P2;SDS_P1;SDS_P2;PMS_P1;PMS_P2;Temp;Humidity;BMP_temperature;BMP_pressure;BME280_temperature;BME280_humidity;BME280_pressure;Samples;Min_cycle;Max_cycle;Signal;HPM_P1;HPM_P2
2023/04/24 00:01:15;;;;;;;12.18;10.80;;;;;;;8.39;100.00;99851.84;4962197;28;20456;-64
2023/04/24 00:03:41;;;;;;;15.88;11.02;;;;;;;8.38;100.00;99856.09;4963394;28;20023;-65
2023/04/24 00:06:07;;;;;;;12.85;11.55;;;;;;;8.38;100.00;99850.94;4969522;28;20031;-64
2023/04/24 00:08:33;;;;;;;13.32;11.90;;;;;;;8.37;100.00;99849.22;4990358;28;20030;-64
2023/04/24 00:10:59;;;;;;;13.25;11.93;;;;;;;8.35;100.00;99848.28;4986049;28;20041;-64
2023/04/24 00:13:24;;;;;;;14.88;12.25;;;;;;;8.34;100.00;99851.72;4973791;28;20106;-64
2023/04/24 00:15:49;;;;;;;12.88;11.57;;;;;;;8.35;100.00;99856.03;4979699;28;20125;-64
2023/04/24 00:18:15;;;;;;;14.15;12.73;;;;;;;8.34;100.00;99854.31;4974780;28;20023;-63
2023/04/24 00:20:40;;;;;;;15.10;13.38;;;;;;;8.35;100.00;99853.47;4965605;28;20471;-64
2023/04/24 00:23:05;;;;;;;14.20;12.18;;;;;;;8.37;100.00;99853.50;4972184;28;20037;-64
2023/04/24 00:25:31;;;;;;;19.38;14.15;;;;;;;8.32;100.00;99855.09;4968838;28;20146;-64
2023/04/24 00:27:56;;;;;;;17.88;14.10;;;;;;;8.31;100.00;99853.34;4960036;28;20453;-64
2023/04/24 00:30:21;;;;;;;14.90;13.38;;;;;;;8.32;100.00;99852.50;4963717;28;20018;-64
2023/04/24 00:32:47;;;;;;;19.42;15.38;;;;;;;8.24;100.00;99862.66;4966428;28;20037;-64
2023/04/24 00:35:12;;;;;;;17.63;15.10;;;;;;;8.22;100.00;99854.00;4964459;28;20033;-64
2023/04/24 00:37:37;;;;;;;19.23;15.85;;;;;;;8.22;100.00;99865.16;4958783;28;20038;-64
2023/04/24 00:40:03;;;;;;;17.88;16.02;;;;;;;8.19;100.00;99864.22;4965661;28;20062;-64
2023/04/24 00:42:29;;;;;;;22.27;16.52;;;;;;;8.17;100.00;99871.91;4960174;28;20025;-64
2023/04/24 00:44:54;;;;;;;20.30;16.48;;;;;;;8.11;100.00;99861.44;4965778;28;20041;-64
2023/04/24 00:47:20;;;;;;;18.40;16.27;;;;;;;8.09;100.00;99876.00;4967854;28;20023;-64
2023/04/24 00:49:45;;;;;;;22.85;17.50;;;;;;;8.10;100.00;99868.31;4975393;28;20130;-64
2023/04/24 00:52:12;;;;;;;20.92;17.55;;;;;;;8.07;100.00;99863.06;4962603;28;20146;-64
2023/04/24 00:54:37;;;;;;;20.40;17.38;;;;;;;8.05;100.00;99867.31;4971730;28;20368;-64
2023/04/24 00:57:03;;;;;;;20.02;16.52;;;;;;;8.05;100.00;99863.03;4962878;28;20034;-64
2023/04/24 00:59:29;;;;;;;20.17;17.77;;;;;;;8.05;100.00;99868.19;4967509;28;20057;-64
2023/04/24 01:01:55;;;;;;;22.75;16.95;;;;;;;8.07;100.00;99863.06;4968960;28;20061;-64
2023/04/24 01:04:21;;;;;;;21.35;16.85;;;;;;;8.01;100.00;99860.31;4965899;28;20355;-64
2023/04/24 01:06:48;;;;;;;18.90;16.85;;;;;;;8.01;100.00;99860.31;4978319;28;20539;-64
2023/04/24 01:09:15;;;;;;;19.75;17.65;;;;;;;8.03;100.00;99868.97;4988951;28;20109;-64
2023/04/24 01:11:42;;;;;;;21.48;18.33;;;;;;;8.02;100.00;99864.66;4989837;28;20034;-64
2023/04/24 01:14:07;;;;;;;18.65;16.60;;;;;;;8.04;100.00;99863.00;4987569;28;20065;-64
2023/04/24 01:16:33;;;;;;;22.20;17.48;;;;;;;8.04;100.00;99865.59;4975812;28;20082;-64
2023/04/24 01:18:58;;;;;;;21.88;19.25;;;;;;;8.02;100.00;99852.63;4953879;28;20039;-64
2023/04/24 01:21:27;;;;;;;23.83;18.17;;;;;;;8.01;100.00;99855.16;4956381;28;20039;-64
2023/04/24 01:23:53;;;;;;;20.27;18.08;;;;;;;7.99;100.00;99859.41;4952022;28;20035;-64
2023/04/24 01:26:19;;;;;;;23.83;18.85;;;;;;;7.91;100.00;99854.94;4979721;28;20283;-64
2023/04/24 01:28:45;;;;;;;25.90;20.23;;;;;;;7.88;100.00;99854.81;4950873;28;20027;-64
2023/04/24 01:31:11;;;;;;;25.20;19.48;;;;;;;7.80;100.00;99851.19;4975194;28;20034;-64
2023/04/24 01:33:36;;;;;;;27.50;20.60;;;;;;;7.80;100.00;99858.91;4982336;28;20030;-64
2023/04/24 01:36:02;;;;;;;26.75;20.98;;;;;;;7.81;100.00;99865.81;4984884;28;20654;-64
2023/04/24 01:38:27;;;;;;;24.52;21.30;;;;;;;7.79;100.00;99860.59;4983842;28;20026;-64
2023/04/24 01:40:53;;;;;;;28.23;22.65;;;;;;;7.74;100.00;99862.19;4986046;28;20034;-64
2023/04/24 01:43:18;;;;;;;29.35;23.00;;;;;;;7.69;100.00;99861.19;4961992;28;20554;-64
2023/04/24 01:45:44;;;;;;;31.65;24.45;;;;;;;7.69;100.00;99864.66;4987757;28;20033;-64
2023/04/24 01:48:09;;;;;;;29.40;25.20;;;;;;;7.68;100.00;99862.03;4978688;28;20022;-64
2023/04/24 01:50:35;;;;;;;32.65;26.30;;;;;;;7.65;100.00;99861.94;4983751;28;20030;-64
2023/04/24 01:53:00;;;;;;;34.60;27.63;;;;;;;7.65;100.00;99860.22;4977003;28;20101;-65
2023/04/24 01:55:25;;;;;;;33.72;26.75;;;;;;;7.64;100.00;99858.50;4982916;28;20018;-64
2023/04/24 01:57:55;;;;;;;29.52;25.55;;;;;;;7.65;100.00;99862.81;4978742;28;20031;-64
2023/04/24 02:00:20;;;;;;;36.05;26.38;;;;;;;7.63;100.00;99856.72;4982192;28;20042;-64
2023/04/24 02:02:45;;;;;;;32.45;27.23;;;;;;;7.62;100.00;99864.44;4975558;28;20038;-64
2023/04/24 02:05:11;;;;;;;29.27;26.20;;;;;;;7.61;100.00;99866.13;4966933;28;20069;-64
2023/04/24 02:07:36;;;;;;;31.88;26.83;;;;;;;7.62;100.00;99865.31;4978002;28;20050;-64
2023/04/24 02:10:03;;;;;;;30.52;25.48;;;;;;;7.61;100.00;99873.00;4973798;28;20476;-64
2023/04/24 02:12:29;;;;;;;30.55;27.23;;;;;;;7.61;100.00;99879.00;4953749;28;20453;-64
2023/04/24 02:14:54;;;;;;;29.55;26.30;;;;;;;7.57;100.00;99872.03;4957093;28;20041;-64
2023/04/24 02:17:19;;;;;;;36.22;27.80;;;;;;;7.55;100.00;99871.13;4968123;28;20035;-64
2023/04/24 02:19:46;;;;;;;31.92;26.67;;;;;;;7.53;100.00;99872.78;4966578;28;20027;-64
2023/04/24 02:22:11;;;;;;;35.58;26.77;;;;;;;7.54;100.00;99883.13;4960547;28;20105;-63
2023/04/24 02:24:37;;;;;;;32.45;27.23;;;;;;;7.53;100.00;99883.09;4973128;28;20435;-64
2023/04/24 02:27:03;;;;;;;29.98;26.52;;;;;;;7.54;100.00;99874.50;4986656;28;20026;-64
2023/04/24 02:29:28;;;;;;;31.05;25.95;;;;;;;7.53;100.00;99871.06;4988129;28;20427;-64
2023/04/24 02:31:53;;;;;;;31.40;25.55;;;;;;;7.52;100.00;99877.03;4950955;28;20111;-64
2023/04/24 02:34:19;;;;;;;30.35;27.08;;;;;;;7.53;100.00;99870.19;4950278;28;20054;-64
2023/04/24 02:36:44;;;;;;;29.88;25.85;;;;;;;7.51;100.00;99874.44;4963436;28;20035;-65
2023/04/24 02:39:09;;;;;;;32.92;25.85;;;;;;;7.48;100.00;99876.94;4950175;28;20027;-64
2023/04/24 02:41:35;;;;;;;34.25;27.05;;;;;;;7.48;100.00;99871.78;4982114;28;20379;-65
2023/04/24 02:44:00;;;;;;;32.35;26.45;;;;;;;7.44;100.00;99871.69;4982310;28;20052;-65
2023/04/24 02:46:25;;;;;;;31.80;26.35;;;;;;;7.43;100.00;99866.47;4969122;28;20023;-65
2023/04/24 02:48:51;;;;;;;33.33;27.25;;;;;;;7.41;100.00;99863.84;4979557;28;20399;-64
2023/04/24 02:51:16;;;;;;;33.65;28.85;;;;;;;7.41;100.00;99861.25;4974948;28;20038;-64
2023/04/24 02:53:42;;;;;;;32.58;26.92;;;;;;;7.38;100.00;99863.75;4980053;28;20510;-64
2023/04/24 02:56:07;;;;;;;29.63;26.42;;;;;;;7.37;100.00;99859.44;4977969;28;20459;-64
2023/04/24 02:58:32;;;;;;;29.23;25.40;;;;;;;7.37;100.00;99849.13;4971623;28;20037;-64
2023/04/24 03:00:57;;;;;;;31.05;25.77;;;;;;;7.38;100.00;99858.59;4964433;28;20070;-64
2023/04/24 03:03:23;;;;;;;32.72;27.75;;;;;;;7.40;100.00;99854.38;4971896;28;20036;-64
2023/04/24 03:05:49;;;;;;;31.48;26.13;;;;;;;7.39;100.00;99852.63;4976873;28;20030;-64
2023/04/24 03:08:16;;;;;;;30.92;26.50;;;;;;;7.39;100.00;99854.34;4977532;28;20022;-64
2023/04/24 03:10:41;;;;;;;31.65;26.90;;;;;;;7.37;100.00;99851.72;4977623;28;20034;-64
2023/04/24 03:13:07;;;;;;;32.38;25.85;;;;;;;7.40;100.00;99856.94;4976978;28;20033;-64
2023/04/24 03:15:32;;;;;;;32.17;27.90;;;;;;;7.41;100.00;99858.69;4974457;28;20153;-64
2023/04/24 03:17:57;;;;;;;29.83;26.27;;;;;;;7.39;100.00;99860.38;4970350;28;20027;-64
2023/04/24 03:20:23;;;;;;;29.83;25.30;;;;;;;7.41;100.00;99863.84;4983158;28;20026;-64
2023/04/24 03:22:48;;;;;;;30.40;25.63;;;;;;;7.41;100.00;99855.25;4978564;28;20426;-64
2023/04/24 03:25:13;;;;;;;30.00;25.92;;;;;;;7.41;100.00;99861.25;4981428;28;20036;-64
2023/04/24 03:27:39;;;;;;;30.25;24.90;;;;;;;7.38;100.00;99862.88;4987350;28;20455;-64
2023/04/24 03:30:08;;;;;;;26.58;23.73;;;;;;;7.41;100.00;99865.56;4987194;28;20025;-64
2023/04/24 03:32:33;;;;;;;28.30;23.77;;;;;;;7.40;100.00;99861.22;4965747;28;20031;-64
2023/04/24 03:34:59;;;;;;;31.70;26.25;;;;;;;7.39;100.00;99862.94;4950941;28;20085;-64
2023/04/24 03:37:24;;;;;;;29.45;24.10;;;;;;;7.37;100.00;99862.03;4971338;28;20026;-64
2023/04/24 03:39:49;;;;;;;27.92;23.25;;;;;;;7.31;100.00;99857.56;4969815;28;20023;-64
2023/04/24 03:42:15;;;;;;;25.88;22.38;;;;;;;7.33;100.00;99852.44;4960635;28;20027;-63
2023/04/24 03:44:40;;;;;;;27.83;23.27;;;;;;;7.32;100.00;99863.59;4965756;28;20070;-64
2023/04/24 03:47:05;;;;;;;27.45;22.20;;;;;;;7.33;100.00;99857.59;4949333;28;20408;-64
2023/04/24 03:49:30;;;;;;;26.48;20.77;;;;;;;7.33;100.00;99855.00;4949503;28;20144;-63
2023/04/24 03:51:56;;;;;;;21.90;19.13;;;;;;;7.30;100.00;99860.09;4958225;28;20470;-64
2023/04/24 03:54:21;;;;;;;21.65;19.35;;;;;;;7.29;100.00;99859.22;4954315;28;20073;-65
2023/04/24 03:56:46;;;;;;;25.02;20.10;;;;;;;7.29;100.00;99858.31;4950148;28;20115;-63
2023/04/24 03:59:13;;;;;;;24.67;20.13;;;;;;;7.29;100.00;99858.31;4949717;28;20369;-64
2023/04/24 04:01:39;;;;;;;23.55;20.92;;;;;;;7.29;100.00;99856.63;4965116;28;20089;-64
2023/04/24 04:04:04;;;;;;;21.33;18.38;;;;;;;7.28;100.00;99857.47;4981602;28;20026;-64
2023/04/24 04:06:33;;;;;;;23.63;19.27;;;;;;;7.30;100.00;99852.34;4975440;28;20033;-64
2023/04/24 04:08:58;;;;;;;21.15;18.48;;;;;;;7.29;100.00;99858.31;4981686;28;20490;-64
2023/04/24 04:11:24;;;;;;;21.40;18.27;;;;;;;7.30;100.00;99858.38;4984701;28;20018;-64
2023/04/24 04:13:49;;;;;;;24.38;20.23;;;;;;;7.29;100.00;99858.31;4981801;28;20419;-64
2023/04/24 04:16:18;;;;;;;22.80;19.77;;;;;;;7.22;100.00;99862.44;4950580;28;20039;-63
2023/04/24 04:18:44;;;;;;;22.38;18.73;;;;;;;7.21;100.00;99856.38;4953886;28;20031;-64
2023/04/24 04:21:10;;;;;;;22.60;18.13;;;;;;;7.21;100.00;99865.84;4950603;28;20474;-64
2023/04/24 04:23:35;;;;;;;22.65;20.20;;;;;;;7.23;100.00;99865.88;4951591;28;20042;-65
2023/04/24 04:26:01;;;;;;;20.88;18.67;;;;;;;7.20;100.00;99869.22;4963386;28;20372;-64
2023/04/24 04:28:27;;;;;;;25.40;19.95;;;;;;;7.20;100.00;99871.81;4972081;28;20102;-64
2023/04/24 04:30:55;;;;;;;22.13;19.90;;;;;;;7.20;100.00;99869.22;4968211;28;20114;-65
2023/04/24 04:33:21;;;;;;;21.63;19.30;;;;;;;7.19;100.00;99868.38;4959808;28;20038;-64
2023/04/24 04:35:49;;;;;;;26.00;20.17;;;;;;;7.18;100.00;99868.31;4953071;28;20403;-64
2023/04/24 04:38:16;;;;;;;21.25;18.55;;;;;;;7.16;100.00;99868.25;4963367;28;20039;-64
2023/04/24 04:40:41;;;;;;;21.67;19.08;;;;;;;7.09;100.00;99867.22;4954466;28;20384;-64
2023/04/24 04:43:07;;;;;;;20.98;18.80;;;;;;;7.09;100.00;99872.34;4953996;28;20039;-64
2023/04/24 04:45:34;;;;;;;21.35;19.17;;;;;;;7.11;100.00;99874.09;4961028;28;20096;-63
2023/04/24 04:48:00;;;;;;;22.13;20.02;;;;;;;7.11;100.00;99874.97;4964124;28;20027;-64
2023/04/24 04:50:26;;;;;;;21.70;19.40;;;;;;;7.07;100.00;99871.44;4965191;28;20113;-64
2023/04/24 04:52:51;;;;;;;21.15;19.15;;;;;;;7.08;100.00;99880.03;4966662;28;20454;-64
2023/04/24 04:55:18;;;;;;;20.30;18.13;;;;;;;7.04;100.00;99883.34;4961137;28;20029;-65
2023/04/24 04:57:43;;;;;;;20.52;18.48;;;;;;;7.06;100.00;99886.84;4965651;28;20453;-64
2023/04/24 05:00:10;;;;;;;21.15;18.95;;;;;;;7.07;100.00;99875.69;4967722;28;20026;-63
2023/04/24 05:02:35;;;;;;;19.88;17.98;;;;;;;7.03;100.00;99884.19;4955902;28;20054;-64
2023/04/24 05:05:01;;;;;;;19.80;17.70;;;;;;;7.04;100.00;99878.19;4957893;28;20479;-64
2023/04/24 05:07:26;;;;;;;19.75;17.75;;;;;;;7.04;100.00;99889.38;4982466;28;20057;-64
2023/04/24 05:09:52;;;;;;;20.70;18.50;;;;;;;7.05;100.00;99885.97;4988006;28;20064;-64
2023/04/24 05:12:17;;;;;;;18.88;17.13;;;;;;;7.05;100.00;99885.97;4989222;28;20453;-64
2023/04/24 05:14:42;;;;;;;19.98;17.92;;;;;;;7.09;100.00;99886.94;4986963;28;20332;-64
2023/04/24 05:17:08;;;;;;;18.00;16.17;;;;;;;7.09;100.00;99892.09;4986967;28;20054;-64
2023/04/24 05:19:35;;;;;;;18.60;16.70;;;;;;;7.14;100.00;99894.81;4974115;28;20030;-64
2023/04/24 05:22:03;;;;;;;16.75;15.15;;;;;;;7.13;100.00;99899.09;4977308;28;20037;-64
2023/04/24 05:24:28;;;;;;;15.38;13.82;;;;;;;7.12;100.00;99892.22;4975975;28;20080;-64
2023/04/24 05:26:53;;;;;;;15.57;13.90;;;;;;;7.13;100.00;99899.09;4982496;28;20026;-65
2023/04/24 05:29:19;;;;;;;14.73;13.18;;;;;;;7.09;100.00;99890.41;4978828;28;20436;-64
2023/04/24 05:31:44;;;;;;;13.60;12.20;;;;;;;7.07;100.00;99896.31;4972382;28;20468;-65
2023/04/24 05:34:10;;;;;;;12.77;11.40;;;;;;;7.05;100.00;99892.84;4974903;28;20075;-64
2023/04/24 05:36:35;;;;;;;10.88;9.77;;;;;;;7.05;100.00;99913.44;4983032;28;20019;-64
2023/04/24 05:39:00;;;;;;;10.25;7.95;;;;;;;7.10;100.00;99911.91;4980224;28;20033;-64
2023/04/24 05:41:25;;;;;;;8.45;7.45;;;;;;;7.13;100.00;99909.41;4959053;28;20042;-64
2023/04/24 05:43:51;;;;;;;8.52;7.50;;;;;;;7.12;100.00;99910.25;4965017;28;20517;-64
2023/04/24 05:46:16;;;;;;;6.68;5.95;;;;;;;7.13;100.00;99904.25;4976142;28;20019;-64
2023/04/24 05:48:41;;;;;;;5.43;4.07;;;;;;;7.15;100.00;99912.91;4952385;28;20074;-64
2023/04/24 05:51:06;;;;;;;4.22;3.92;;;;;;;7.16;100.00;99917.22;4957925;28;20022;-64
2023/04/24 05:53:32;;;;;;;3.53;2.70;;;;;;;7.16;100.00;99927.53;4958461;28;20026;-65
2023/04/24 05:55:57;;;;;;;3.70;3.15;;;;;;;7.16;100.00;99935.25;4961043;28;20027;-64
2023/04/24 05:58:22;;;;;;;2.95;2.53;;;;;;;7.18;100.00;99941.34;4960368;28;20111;-64
2023/04/24 06:00:48;;;;;;;2.65;2.45;;;;;;;7.20;100.00;99947.44;4958269;28;20030;-66
2023/04/24 06:03:13;;;;;;;3.20;2.17;;;;;;;7.22;100.00;99955.19;4955160;28;20027;-66
2023/04/24 06:05:38;;;;;;;2.70;2.17;;;;;;;7.23;100.00;99962.13;4964234;28;20424;-66
2023/04/24 06:08:04;;;;;;;2.67;2.47;;;;;;;7.27;100.00;99968.22;4959935;28;20030;-67
2023/04/24 06:10:29;;;;;;;3.53;2.67;;;;;;;7.27;100.00;99973.38;4959098;28;20035;-66
2023/04/24 06:12:59;;;;;;;2.40;2.20;;;;;;;7.26;100.00;99974.22;4962336;28;20050;-66
2023/04/24 06:15:25;;;;;;;1.88;1.75;;;;;;;7.27;100.00;99981.09;4957876;28;20057;-66
2023/04/24 06:17:50;;;;;;;3.83;3.00;;;;;;;7.29;100.00;99971.72;4964357;28;20031;-67
2023/04/24 06:20:15;;;;;;;3.10;2.83;;;;;;;7.30;100.00;99987.22;4956120;28;20372;-66
2023/04/24 06:22:41;;;;;;;5.63;3.40;;;;;;;7.32;100.00;99992.47;4964544;28;20125;-66
2023/04/24 06:25:07;;;;;;;2.85;2.60;;;;;;;7.34;100.00;99998.50;4956261;28;20407;-66
2023/04/24 06:27:32;;;;;;;3.70;2.90;;;;;;;7.35;100.00;99997.72;4973494;28;20387;-67
2023/04/24 06:29:57;;;;;;;3.90;2.65;;;;;;;7.38;100.00;100000.38;4956511;28;20038;-66
2023/04/24 06:32:24;;;;;;;4.07;3.05;;;;;;;7.41;100.00;100013.34;4962820;28;20049;-67
2023/04/24 06:34:52;;;;;;;3.63;2.58;;;;;;;7.47;100.00;100019.53;4955866;28;20394;-67
2023/04/24 06:37:18;;;;;;;4.07;3.42;;;;;;;7.47;100.00;100016.94;4974894;28;20026;-66
2023/04/24 06:39:44;;;;;;;5.45;3.80;;;;;;;7.50;100.00;100032.53;4954962;28;20051;-66
2023/04/24 06:42:09;;;;;;;4.15;3.83;;;;;;;7.51;100.00;100035.16;4969903;28;20105;-67
2023/04/24 06:44:40;;;;;;;4.85;4.45;;;;;;;7.52;100.00;100042.06;4965153;28;20031;-66
2023/04/24 06:47:07;;;;;;;5.65;4.57;;;;;;;7.53;100.00;100032.63;4957625;28;20058;-66
2023/04/24 06:49:32;;;;;;;5.28;4.75;;;;;;;7.52;100.00;100036.91;4961175;28;20035;-67
2023/04/24 06:51:57;;;;;;;5.20;4.22;;;;;;;7.53;100.00;100053.25;4955113;28;20117;-66
2023/04/24 06:54:22;;;;;;;6.05;5.55;;;;;;;7.52;100.00;100052.38;4955966;28;20034;-66
2023/04/24 06:56:49;;;;;;;7.68;6.97;;;;;;;7.52;100.00;100066.97;4959890;28;20030;-67
2023/04/24 06:59:14;;;;;;;8.57;7.18;;;;;;;7.52;100.00;100059.25;4967823;28;20018;-67
2023/04/24 07:01:40;;;;;;;8.48;7.68;;;;;;;7.51;100.00;100080.69;4962635;28;20027;-67
2023/04/24 07:04:05;;;;;;;9.27;8.43;;;;;;;7.50;100.00;100076.38;4977875;28;20382;-67
2023/04/24 07:06:30;;;;;;;9.77;8.43;;;;;;;7.45;100.00;100084.81;4957467;28;20576;-67
2023/04/24 07:08:56;;;;;;;9.98;9.02;;;;;;;7.46;100.00;100093.44;4965277;28;20045;-66
2023/04/24 07:11:22;;;;;;;11.18;10.00;;;;;;;7.47;100.00;100108.06;4954068;28;20027;-66
2023/04/24 07:13:47;;;;;;;11.48;9.43;;;;;;;7.45;100.00;100118.34;4959578;28;20162;-67
2023/04/24 07:16:12;;;;;;;12.05;10.80;;;;;;;7.43;100.00;100122.56;4955166;28;20373;-66
2023/04/24 07:18:39;;;;;;;17.73;10.75;;;;;;;7.43;100.00;100129.41;4963062;28;20493;-67
2023/04/24 07:21:04;;;;;;;12.57;11.00;;;;;;;7.41;100.00;100143.97;4960484;28;20038;-67
2023/04/24 07:23:31;;;;;;;14.70;11.63;;;;;;;7.39;100.00;100153.34;4964209;28;20026;-66
2023/04/24 07:25:56;;;;;;;12.60;9.93;;;;;;;7.35;100.00;100160.09;4956470;28;20433;-66
2023/04/24 07:28:21;;;;;;;12.55;10.18;;;;;;;7.35;100.00;100172.09;4959512;28;20031;-66
2023/04/24 07:30:47;;;;;;;14.32;10.30;;;;;;;7.33;100.00;100172.94;4952538;28;20035;-66
2023/04/24 07:33:13;;;;;;;11.45;10.27;;;;;;;7.32;100.00;100188.34;4960300;28;20039;-66
2023/04/24 07:35:38;;;;;;;11.98;10.00;;;;;;;7.31;100.00;100184.00;4957595;28;20038;-66
2023/04/24 07:38:04;;;;;;;13.38;9.18;;;;;;;7.32;100.00;100199.50;4957257;28;20031;-67
2023/04/24 07:40:29;;;;;;;14.02;9.50;;;;;;;7.31;100.00;100207.19;4965692;28;20034;-67
2023/04/24 07:42:54;;;;;;;14.05;10.25;;;;;;;7.31;100.00;100207.19;4962878;28;20126;-66
2023/04/24 07:45:20;;;;;;;11.70;9.70;;;;;;;7.33;100.00;100215.88;4962939;28;20069;-67
2023/04/24 07:47:45;;;;;;;14.38;9.50;;;;;;;7.34;100.00;100238.22;4962037;28;20046;-66
2023/04/24 07:50:12;;;;;;;12.75;8.38;;;;;;;7.35;100.00;100245.16;4967616;28;20022;-66
2023/04/24 07:52:38;;;;;;;10.75;8.10;;;;;;;7.33;100.00;100236.50;4959004;28;20499;-67
2023/04/24 07:55:04;;;;;;;13.07;8.27;;;;;;;7.34;100.00;100253.69;4963541;28;20078;-66
2023/04/24 07:57:30;;;;;;;12.65;8.13;;;;;;;7.35;100.00;100258.06;4951630;28;20097;-66
2023/04/24 07:59:55;;;;;;;12.32;8.02;;;;;;;7.36;100.00;100264.94;4961099;28;20023;-67
2023/04/24 08:02:25;;;;;;;14.52;7.55;;;;;;;7.36;100.00;100272.69;4965874;28;20030;-67
2023/04/24 08:04:51;;;;;;;12.95;7.57;;;;;;;7.35;100.00;100270.06;4958404;28;20054;-67
2023/04/24 08:07:17;;;;;;;10.70;7.28;;;;;;;7.35;100.00;100280.38;4957047;28;20099;-66
2023/04/24 08:09:42;;;;;;;11.55;7.35;;;;;;;7.34;100.00;100279.47;4964901;28;20027;-67
2023/04/24 08:12:07;;;;;;;14.55;6.97;;;;;;;7.36;100.00;100292.44;4959568;28;20030;-66
2023/04/24 08:14:32;;;;;;;14.70;7.00;;;;;;;7.38;100.00;100293.34;4963142;28;20034;-66
2023/04/24 08:17:00;;;;;;;10.07;6.22;;;;;;;7.39;100.00;100303.75;4962074;28;20349;-66
2023/04/24 08:19:25;;;;;;;14.20;6.22;;;;;;;7.40;100.00;100304.59;4961521;28;20063;-67
2023/04/24 08:21:50;;;;;;;13.70;6.60;;;;;;;7.41;100.00;100307.22;4958550;28;20122;-67
2023/04/24 08:24:16;;;;;;;17.00;6.88;;;;;;;7.43;100.00;100310.75;4961849;28;20069;-66
2023/04/24 08:26:41;;;;;;;14.57;7.00;;;;;;;7.45;100.00;100322.00;4961527;28;20049;-67
2023/04/24 08:29:06;;;;;;;18.75;7.53;;;;;;;7.48;100.00;100325.53;4960739;28;20023;-66
2023/04/24 08:31:32;;;;;;;11.45;7.13;;;;;;;7.48;100.00;100333.25;4960639;28;20081;-67
2023/04/24 08:33:58;;;;;;;10.75;6.63;;;;;;;7.49;100.00;100340.16;4957764;28;20053;-67
2023/04/24 08:36:24;;;;;;;13.57;7.60;;;;;;;7.49;100.00;100340.16;4960100;28;20035;-67
2023/04/24 08:38:49;;;;;;;16.55;7.95;;;;;;;7.49;100.00;100348.78;4959587;28;20039;-66
2023/04/24 08:41:15;;;;;;;14.20;7.50;;;;;;;7.50;100.00;100358.25;4960576;28;20053;-67
2023/04/24 08:43:41;;;;;;;14.85;7.75;;;;;;;7.50;100.00;100347.94;4974006;28;20038;-66
2023/04/24 08:46:06;;;;;;;19.38;8.38;;;;;;;7.50;100.00;100354.81;4960244;28;20395;-66
2023/04/24 08:48:32;;;;;;;19.55;7.45;;;;;;;7.53;100.00;100360.09;4961522;28;20041;-67
2023/04/24 08:50:59;;;;;;;19.77;6.93;;;;;;;7.54;100.00;100364.41;4960892;28;20460;-66
2023/04/24 08:53:25;;;;;;;10.00;6.05;;;;;;;7.60;100.00;100371.50;4964571;28;20404;-66
2023/04/24 08:55:51;;;;;;;16.52;6.80;;;;;;;7.64;100.00;100371.69;4959548;28;20373;-66
2023/04/24 08:58:17;;;;;;;11.85;5.45;;;;;;;7.68;100.00;100372.69;4958627;28;20070;-66
2023/04/24 09:00:46;;;;;;;11.57;5.93;;;;;;;7.76;100.00;100380.66;4961158;28;20077;-67
2023/04/24 09:03:16;;;;;;;17.05;5.93;;;;;;;7.89;100.00;100385.47;4956034;28;20034;-66
2023/04/24 09:05:45;;;;;;;17.65;4.45;;;;;;;7.97;100.00;100390.03;4956360;28;20039;-67
2023/04/24 09:08:13;;;;;;;7.82;3.85;;;;;;;7.99;100.00;100393.50;4961059;28;20035;-67
2023/04/24 09:10:39;;;;;;;8.07;3.53;;;;;;;7.98;100.00;100402.09;4957964;28;20167;-67
2023/04/24 09:13:04;;;;;;;10.05;3.50;;;;;;;7.96;100.00;100414.06;4959916;28;20149;-66
2023/04/24 09:15:30;;;;;;;11.10;3.95;;;;;;;7.91;100.00;100407.03;4968121;28;20057;-67
2023/04/24 09:17:56;;;;;;;11.63;3.83;;;;;;;7.87;100.00;100422.34;4967914;28;20031;-67
2023/04/24 09:20:21;;;;;;;7.40;3.42;;;;;;;7.81;100.00;100426.47;4972272;28;20519;-67
2023/04/24 09:22:47;;;;;;;10.60;3.13;;;;;;;7.80;100.00;100426.41;4972555;28;20030;-67
2023/04/24 09:25:12;;;;;;;8.15;3.08;;;;;;;7.77;100.00;100426.31;4973323;28;20046;-66
2023/04/24 09:27:43;;;;;;;13.65;3.33;;;;;;;7.79;100.00;100432.38;4970657;28;20422;-67
2023/04/24 09:30:09;;;;;;;12.30;3.67;;;;;;;7.85;100.00;100450.66;4971835;28;20023;-66
2023/04/24 09:32:34;;;;;;;7.20;3.05;;;;;;;7.92;100.00;100452.66;4971506;28;20030;-67
2023/04/24 09:35:09;;;;;;;8.60;3.17;;;;;;;8.06;100.00;100467.75;4972538;28;20066;-67
2023/04/24 09:37:37;;;;;;;11.23;4.05;;;;;;;8.12;100.00;100462.81;4976372;28;20468;-66
2023/04/24 09:40:19;;;;;;;12.25;3.88;;;;;;;8.12;100.00;100464.50;4964394;28;20035;-64
2023/04/24 09:42:56;;;;;;;8.63;3.45;;;;;;;8.07;100.00;100472.09;4979287;28;20027;-64
2023/04/24 09:45:22;;;;;;;10.18;3.45;;;;;;;7.99;100.00;100474.38;4960767;28;20077;-64
2023/04/24 09:47:53;;;;;;;7.63;3.33;;;;;;;7.97;100.00;100480.34;4968125;28;20030;-64
2023/04/24 09:50:18;;;;;;;8.98;2.90;;;;;;;7.92;100.00;100481.03;4969388;28;20094;-64
2023/04/24 09:52:46;;;;;;;14.15;3.25;;;;;;;7.88;100.00;100486.88;4956590;28;20117;-64
2023/04/24 09:55:17;;;;;;;10.75;2.83;;;;;;;7.83;100.00;100491.00;4959741;28;20027;-64
2023/04/24 09:57:52;;;;;;;;;;;;;;;7.85;100.00;100494.53;4965654;28;20077;-65
2023/04/24 10:00:28;;;;;;;7.80;2.47;;;;;;;7.95;100.00;100497.47;4977917;28;20278;-64
2023/04/24 10:02:58;;;;;;;5.53;2.22;;;;;;;8.06;100.00;100503.88;4969343;28;20038;-64
2023/04/24 10:05:27;;;;;;;7.80;2.63;;;;;;;8.14;100.00;100519.66;4971568;28;20479;-65
2023/04/24 10:07:56;;;;;;;4.30;2.17;;;;;;;8.21;100.00;100507.84;4971926;28;20030;-64
2023/04/24 10:10:22;;;;;;;7.38;1.90;;;;;;;8.31;100.00;100517.69;4956588;28;20081;-65
2023/04/24 10:12:48;;;;;;;8.30;2.08;;;;;;;8.53;100.00;100521.03;4950952;28;20027;-64
2023/04/24 10:15:16;;;;;;;7.47;2.15;;;;;;;8.82;100.00;100505.69;4950186;28;20082;-64
2023/04/24 10:17:43;;;;;;;4.13;1.60;;;;;;;8.92;100.00;100516.34;4954204;28;20391;-64
2023/04/24 10:20:10;;;;;;;2.67;1.63;;;;;;;8.99;100.00;100518.31;4959664;28;20023;-65
2023/04/24 10:22:36;;;;;;;4.82;1.92;;;;;;;9.00;100.00;100525.22;4974872;28;20038;-64
2023/04/24 10:25:04;;;;;;;4.55;1.95;;;;;;;8.95;100.00;100530.25;4974694;28;20088;-64
2023/04/24 10:27:31;;;;;;;5.50;2.08;;;;;;;8.89;100.00;100533.50;4983600;28;20037;-64
2023/04/24 10:29:57;;;;;;;5.28;1.58;;;;;;;8.80;100.00;100530.59;4972662;28;20041;-64
2023/04/24 10:32:22;;;;;;;3.42;1.25;;;;;;;8.71;100.00;100535.44;4961739;28;20027;-64
2023/04/24 10:34:48;;;;;;;2.72;0.95;;;;;;;8.68;100.00;100540.50;4960246;28;20026;-64
2023/04/24 10:37:14;;;;;;;4.03;0.85;;;;;;;8.63;100.00;100546.38;4967895;28;20030;-64
2023/04/24 10:39:40;;;;;;;5.25;0.73;;;;;;;8.56;100.00;100556.47;4980830;28;20030;-65
2023/04/24 10:42:15;;;;;;;3.72;0.93;;;;;;;8.48;100.00;100559.63;4980946;28;20496;-65
2023/04/24 10:44:41;;;;;;;2.13;0.90;;;;;;;8.47;100.00;100563.00;4961714;28;20195;-64
2023/04/24 10:47:13;;;;;;;4.35;0.88;;;;;;;8.48;100.00;100575.13;4959684;28;20034;-65
2023/04/24 10:49:40;;;;;;;2.92;0.82;;;;;;;8.52;100.00;100576.09;4961332;28;20037;-64
2023/04/24 10:52:05;;;;;;;2.70;0.73;;;;;;;8.55;100.00;100577.91;4977910;28;20677;-65
2023/04/24 10:54:45;;;;;;;4.38;0.80;;;;;;;8.57;100.00;100569.44;4977929;28;20121;-64
2023/04/24 10:57:20;;;;;;;2.63;0.70;;;;;;;8.59;100.00;100575.53;4956333;28;20436;-64
2023/04/24 10:59:47;;;;;;;4.88;0.98;;;;;;;8.57;100.00;100581.47;4968378;28;20526;-64
2023/04/24 11:02:16;;;;;;;6.43;1.23;;;;;;;8.57;100.00;100589.22;4955069;28;20031;-64
2023/04/24 11:04:45;;;;;;;4.47;1.45;;;;;;;8.52;100.00;100589.91;4966485;28;20162;-64
2023/04/24 11:07:11;;;;;;;1.60;0.75;;;;;;;8.50;100.00;100594.13;4967895;28;20022;-65
2023/04/24 11:09:40;;;;;;;3.10;1.00;;;;;;;8.48;100.00;100590.59;4957173;28;20038;-64
2023/04/24 11:12:08;;;;;;;2.80;0.90;;;;;;;8.50;100.00;100598.41;4956994;28;20562;-64
2023/04/24 11:14:56;;;;;;;3.05;1.00;;;;;;;8.50;100.00;100591.56;4978157;28;20030;-64